sensor_id;sensor_type;location;lat;lon;timestamp;P1;durP1;ratioP1;P2;durP2;ratioP2
26963;SDS011;14521;48.148;-1.656;2023-05-21T00:00:41;2.28;;;1.10;;
26963;SDS011;14521;48.148;-1.656;2023-05-21T00:04:03;1.73;;;1.05;;
26963;SDS011;14521;48.148;-1.656;2023-05-21T00:07:28;1.60;;;0.80;;
26963;SDS011;14521;48.148;-1.656;2023-05-21T00:10:52;1.65;;;1.02;;
26963;SDS011;14521;48.148;-1.656;2023-05-21T00:14:14;2.10;;;1.10;;
26963;SDS011;14521;48.148;-1.656;2023-05-21T00:17:36;3.05;;;0.93;;
26963;SDS011;14521;48.148;-1.656;2023-05-21T00:21:00;1.23;;;0.82;;
26963;SDS011;14521;48.148;-1.656;2023-05-21T00:24:23;1.02;;;0.93;;
26963;SDS011;14521;48.148;-1.656;2023-05-21T00:27:45;2.65;;;0.95;;
26963;SDS011;14521;48.148;-1.656;2023-05-21T00:31:08;1.48;;;0.85;;
26963;SDS011;14521;48.148;-1.656;2023-05-21T00:34:30;1.83;;;1.10;;
26963;SDS011;14521;48.148;-1.656;2023-05-21T00:37:53;1.30;;;0.77;;
26963;SDS011;14521;48.148;-1.656;2023-05-21T00:41:16;2.22;;;1.10;;
26963;SDS011;14521;48.148;-1.656;2023-05-21T00:44:39;0.80;;;0.80;;
26963;SDS011;14521;48.148;-1.656;2023-05-21T00:48:02;1.02;;;0.93;;
26963;SDS011;14521;48.148;-1.656;2023-05-21T00:51:25;2.83;;;1.17;;
26963;SDS011;14521;48.148;-1.656;2023-05-21T00:54:51;1.70;;;0.93;;
26963;SDS011;14521;48.148;-1.656;2023-05-21T00:58:13;1.92;;;1.00;;
26963;SDS011;14521;48.148;-1.656;2023-05-21T01:01:38;1.30;;;0.70;;
26963;SDS011;14521;48.148;-1.656;2023-05-21T01:05:00;1.30;;;1.20;;
26963;SDS011;14521;48.148;-1.656;2023-05-21T01:08:25;1.20;;;1.00;;
26963;SDS011;14521;48.148;-1.656;2023-05-21T01:11:50;2.25;;;1.00;;
26963;SDS011;14521;48.148;-1.656;2023-05-21T01:15:13;3.47;;;1.08;;
26963;SDS011;14521;48.148;-1.656;2023-05-21T01:18:36;0.85;;;0.85;;
26963;SDS011;14521;48.148;-1.656;2023-05-21T01:21:59;1.95;;;1.08;;
26963;SDS011;14521;48.148;-1.656;2023-05-21T01:25:26;1.80;;;1.10;;
26963;SDS011;14521;48.148;-1.656;2023-05-21T01:28:48;1.83;;;1.10;;
26963;SDS011;14521;48.148;-1.656;2023-05-21T01:32:19;1.02;;;0.95;;
26963;SDS011;14521;48.148;-1.656;2023-05-21T01:36:12;2.53;;;0.95;;
26963;SDS011;14521;48.148;-1.656;2023-05-21T01:39:40;2.38;;;1.00;;
26963;SDS011;14521;48.148;-1.656;2023-05-21T01:43:07;1.05;;;0.98;;
26963;SDS011;14521;48.148;-1.656;2023-05-21T01:46:31;2.50;;;0.98;;
26963;SDS011;14521;48.148;-1.656;2023-05-21T01:49:57;1.38;;;0.95;;
26963;SDS011;14521;48.148;-1.656;2023-05-21T01:53:21;1.88;;;0.90;;
26963;SDS011;14521;48.148;-1.656;2023-05-21T01:56:43;1.73;;;1.10;;
26963;SDS011;14521;48.148;-1.656;2023-05-21T02:00:06;2.15;;;0.90;;
26963;SDS011;14521;48.148;-1.656;2023-05-21T02:03:35;3.05;;;1.17;;
26963;SDS011;14521;48.148;-1.656;2023-05-21T02:06:59;1.90;;;0.77;;
26963;SDS011;14521;48.148;-1.656;2023-05-21T02:10:21;1.98;;;0.93;;
26963;SDS011;14521;48.148;-1.656;2023-05-21T02:13:44;1.77;;;0.90;;
26963;SDS011;14521;48.148;-1.656;2023-05-21T02:17:07;1.88;;;1.17;;
26963;SDS011;14521;48.148;-1.656;2023-05-21T02:20:29;1.20;;;1.10;;
26963;SDS011;14521;48.148;-1.656;2023-05-21T02:23:52;0.88;;;0.88;;
26963;SDS011;14521;48.148;-1.656;2023-05-21T02:27:14;2.10;;;0.70;;
26963;SDS011;14521;48.148;-1.656;2023-05-21T02:30:38;3.28;;;1.20;;
26963;SDS011;14521;48.148;-1.656;2023-05-21T02:34:00;1.70;;;0.90;;
26963;SDS011;14521;48.148;-1.656;2023-05-21T02:37:24;2.08;;;1.10;;
26963;SDS011;14521;48.148;-1.656;2023-05-21T02:40:50;1.98;;;0.90;;
26963;SDS011;14521;48.148;-1.656;2023-05-21T02:44:13;0.80;;;0.80;;
26963;SDS011;14521;48.148;-1.656;2023-05-21T02:47:35;1.10;;;0.70;;
26963;SDS011;14521;48.148;-1.656;2023-05-21T02:51:01;1.38;;;0.90;;
26963;SDS011;14521;48.148;-1.656;2023-05-21T02:54:23;1.00;;;0.88;;
26963;SDS011;14521;48.148;-1.656;2023-05-21T02:57:46;2.75;;;1.50;;
26963;SDS011;14521;48.148;-1.656;2023-05-21T03:01:08;2.35;;;0.95;;
26963;SDS011;14521;48.148;-1.656;2023-05-21T03:04:31;1.75;;;1.00;;
26963;SDS011;14521;48.148;-1.656;2023-05-21T03:07:59;2.75;;;0.70;;
26963;SDS011;14521;48.148;-1.656;2023-05-21T03:11:22;1.35;;;1.00;;
26963;SDS011;14521;48.148;-1.656;2023-05-21T03:14:45;0.80;;;0.80;;
26963;SDS011;14521;48.148;-1.656;2023-05-21T03:18:07;2.40;;;1.30;;
26963;SDS011;14521;48.148;-1.656;2023-05-21T03:21:29;1.65;;;0.82;;
26963;SDS011;14521;48.148;-1.656;2023-05-21T03:24:52;3.38;;;1.00;;
26963;SDS011;14521;48.148;-1.656;2023-05-21T03:28:15;1.95;;;0.80;;
26963;SDS011;14521;48.148;-1.656;2023-05-21T03:31:43;0.82;;;0.82;;
26963;SDS011;14521;48.148;-1.656;2023-05-21T03:35:07;0.65;;;0.65;;
26963;SDS011;14521;48.148;-1.656;2023-05-21T03:38:30;1.35;;;1.00;;
26963;SDS011;14521;48.148;-1.656;2023-05-21T03:41:52;5.47;;;0.93;;
26963;SDS011;14521;48.148;-1.656;2023-05-21T03:45:26;1.20;;;1.00;;
26963;SDS011;14521;48.148;-1.656;2023-05-21T03:49:06;2.22;;;0.70;;
26963;SDS011;14521;48.148;-1.656;2023-05-21T03:52:30;1.90;;;0.93;;
26963;SDS011;14521;48.148;-1.656;2023-05-21T03:55:53;1.83;;;1.00;;
26963;SDS011;14521;48.148;-1.656;2023-05-21T03:59:17;2.97;;;0.98;;
26963;SDS011;14521;48.148;-1.656;2023-05-21T04:02:40;2.13;;;0.75;;
26963;SDS011;14521;48.148;-1.656;2023-05-21T04:06:03;4.28;;;1.00;;
26963;SDS011;14521;48.148;-1.656;2023-05-21T04:09:26;0.85;;;0.70;;
26963;SDS011;14521;48.148;-1.656;2023-05-21T04:12:48;1.27;;;0.70;;
26963;SDS011;14521;48.148;-1.656;2023-05-21T04:16:13;3.22;;;1.08;;
26963;SDS011;14521;48.148;-1.656;2023-05-21T04:19:40;2.20;;;0.80;;
26963;SDS011;14521;48.148;-1.656;2023-05-21T04:23:03;1.02;;;0.93;;
26963;SDS011;14521;48.148;-1.656;2023-05-21T04:26:25;1.02;;;0.88;;
26963;SDS011;14521;48.148;-1.656;2023-05-21T04:29:49;2.60;;;1.08;;
26963;SDS011;14521;48.148;-1.656;2023-05-21T04:33:12;3.70;;;0.98;;
26963;SDS011;14521;48.148;-1.656;2023-05-21T04:36:38;1.00;;;0.82;;
26963;SDS011;14521;48.148;-1.656;2023-05-21T04:40:02;1.30;;;1.00;;
26963;SDS011;14521;48.148;-1.656;2023-05-21T04:43:25;2.72;;;1.05;;
26963;SDS011;14521;48.148;-1.656;2023-05-21T04:46:49;2.05;;;0.93;;
26963;SDS011;14521;48.148;-1.656;2023-05-21T04:50:13;0.85;;;0.50;;
26963;SDS011;14521;48.148;-1.656;2023-05-21T04:53:36;1.90;;;0.90;;
26963;SDS011;14521;48.148;-1.656;2023-05-21T04:56:59;2.55;;;1.00;;
26963;SDS011;14521;48.148;-1.656;2023-05-21T05:00:21;0.88;;;0.80;;
26963;SDS011;14521;48.148;-1.656;2023-05-21T05:07:09;1.63;;;0.98;;
26963;SDS011;14521;48.148;-1.656;2023-05-21T05:10:31;1.58;;;1.15;;
26963;SDS011;14521;48.148;-1.656;2023-05-21T05:13:54;2.17;;;1.13;;
26963;SDS011;14521;48.148;-1.656;2023-05-21T05:17:16;2.08;;;0.95;;
26963;SDS011;14521;48.148;-1.656;2023-05-21T05:20:39;1.60;;;0.93;;
26963;SDS011;14521;48.148;-1.656;2023-05-21T05:24:02;3.10;;;1.30;;
26963;SDS011;14521;48.148;-1.656;2023-05-21T05:27:25;4.07;;;1.05;;
26963;SDS011;14521;48.148;-1.656;2023-05-21T05:30:49;2.67;;;1.13;;
26963;SDS011;14521;48.148;-1.656;2023-05-21T05:34:16;2.47;;;0.95;;
26963;SDS011;14521;48.148;-1.656;2023-05-21T05:37:39;1.88;;;0.90;;
26963;SDS011;14521;48.148;-1.656;2023-05-21T05:41:02;12.98;;;1.40;;
26963;SDS011;14521;48.148;-1.656;2023-05-21T05:44:25;4.00;;;1.20;;
26963;SDS011;14521;48.148;-1.656;2023-05-21T05:47:48;2.20;;;1.05;;
26963;SDS011;14521;48.148;-1.656;2023-05-21T05:51:10;3.47;;;1.08;;
26963;SDS011;14521;48.148;-1.656;2023-05-21T05:54:32;5.00;;;1.23;;
26963;SDS011;14521;48.148;-1.656;2023-05-21T05:57:55;2.58;;;1.02;;
26963;SDS011;14521;48.148;-1.656;2023-05-21T06:01:17;2.53;;;1.35;;
26963;SDS011;14521;48.148;-1.656;2023-05-21T06:04:40;7.63;;;1.75;;
26963;SDS011;14521;48.148;-1.656;2023-05-21T06:08:03;1.60;;;1.10;;
26963;SDS011;14521;48.148;-1.656;2023-05-21T06:11:25;1.98;;;1.00;;
26963;SDS011;14521;48.148;-1.656;2023-05-21T06:14:48;2.40;;;0.85;;
26963;SDS011;14521;48.148;-1.656;2023-05-21T06:18:11;6.97;;;0.95;;
26963;SDS011;14521;48.148;-1.656;2023-05-21T06:21:34;2.03;;;1.00;;
26963;SDS011;14521;48.148;-1.656;2023-05-21T06:24:58;5.40;;;1.10;;
26963;SDS011;14521;48.148;-1.656;2023-05-21T06:28:21;7.70;;;1.33;;
26963;SDS011;14521;48.148;-1.656;2023-05-21T06:31:44;3.97;;;1.05;;
26963;SDS011;14521;48.148;-1.656;2023-05-21T06:35:07;3.53;;;0.90;;
26963;SDS011;14521;48.148;-1.656;2023-05-21T06:38:29;4.22;;;0.90;;
26963;SDS011;14521;48.148;-1.656;2023-05-21T06:41:53;1.67;;;0.93;;
26963;SDS011;14521;48.148;-1.656;2023-05-21T06:45:32;5.93;;;2.42;;
26963;SDS011;14521;48.148;-1.656;2023-05-21T06:49:02;8.50;;;2.95;;
26963;SDS011;14521;48.148;-1.656;2023-05-21T06:52:24;11.57;;;2.88;;
26963;SDS011;14521;48.148;-1.656;2023-05-21T06:55:49;13.95;;;2.80;;
26963;SDS011;14521;48.148;-1.656;2023-05-21T06:59:21;12.98;;;3.08;;
26963;SDS011;14521;48.148;-1.656;2023-05-21T07:02:44;9.40;;;3.28;;
26963;SDS011;14521;48.148;-1.656;2023-05-21T07:06:06;13.82;;;3.00;;
26963;SDS011;14521;48.148;-1.656;2023-05-21T07:09:29;9.77;;;3.25;;
26963;SDS011;14521;48.148;-1.656;2023-05-21T07:12:52;9.27;;;2.75;;
26963;SDS011;14521;48.148;-1.656;2023-05-21T07:15:55;10.70;;;3.60;;
26963;SDS011;14521;48.148;-1.656;2023-05-21T07:18:58;14.77;;;3.40;;
26963;SDS011;14521;48.148;-1.656;2023-05-21T07:22:00;10.38;;;3.50;;
26963;SDS011;14521;48.148;-1.656;2023-05-21T07:25:03;9.70;;;3.05;;
26963;SDS011;14521;48.148;-1.656;2023-05-21T07:28:06;9.35;;;3.17;;
26963;SDS011;14521;48.148;-1.656;2023-05-21T07:31:27;7.07;;;2.67;;
26963;SDS011;14521;48.148;-1.656;2023-05-21T07:34:50;8.27;;;3.33;;
26963;SDS011;14521;48.148;-1.656;2023-05-21T07:38:16;11.13;;;3.45;;
26963;SDS011;14521;48.148;-1.656;2023-05-21T07:41:38;10.05;;;3.28;;
26963;SDS011;14521;48.148;-1.656;2023-05-21T07:44:42;15.53;;;3.87;;
26963;SDS011;14521;48.148;-1.656;2023-05-21T07:47:44;8.80;;;3.70;;
26963;SDS011;14521;48.148;-1.656;2023-05-21T07:50:48;10.57;;;3.30;;
26963;SDS011;14521;48.148;-1.656;2023-05-21T07:53:53;9.20;;;3.38;;
26963;SDS011;14521;48.148;-1.656;2023-05-21T07:57:22;5.78;;;3.38;;
26963;SDS011;14521;48.148;-1.656;2023-05-21T08:00:50;16.13;;;3.75;;
26963;SDS011;14521;48.148;-1.656;2023-05-21T08:04:13;14.63;;;3.50;;
26963;SDS011;14521;48.148;-1.656;2023-05-21T08:07:35;12.00;;;3.50;;
26963;SDS011;14521;48.148;-1.656;2023-05-21T08:10:59;7.75;;;3.60;;
26963;SDS011;14521;48.148;-1.656;2023-05-21T08:14:21;9.77;;;3.63;;
26963;SDS011;14521;48.148;-1.656;2023-05-21T08:17:45;13.07;;;4.00;;
26963;SDS011;14521;48.148;-1.656;2023-05-21T08:21:07;10.57;;;4.10;;
26963;SDS011;14521;48.148;-1.656;2023-05-21T08:24:30;10.63;;;4.32;;
26963;SDS011;14521;48.148;-1.656;2023-05-21T08:27:53;9.88;;;4.32;;
26963;SDS011;14521;48.148;-1.656;2023-05-21T08:31:17;11.07;;;4.00;;
26963;SDS011;14521;48.148;-1.656;2023-05-21T08:34:39;12.75;;;4.05;;
26963;SDS011;14521;48.148;-1.656;2023-05-21T08:38:14;6.27;;;3.80;;
26963;SDS011;14521;48.148;-1.656;2023-05-21T08:41:48;10.90;;;3.50;;
26963;SDS011;14521;48.148;-1.656;2023-05-21T08:45:21;12.13;;;3.90;;
26963;SDS011;14521;48.148;-1.656;2023-05-21T08:48:44;10.23;;;3.83;;
26963;SDS011;14521;48.148;-1.656;2023-05-21T08:52:08;12.48;;;4.38;;
26963;SDS011;14521;48.148;-1.656;2023-05-21T08:55:30;11.88;;;4.53;;
26963;SDS011;14521;48.148;-1.656;2023-05-21T08:58:54;11.32;;;4.97;;
26963;SDS011;14521;48.148;-1.656;2023-05-21T09:02:20;9.18;;;3.70;;
26963;SDS011;14521;48.148;-1.656;2023-05-21T09:05:45;14.23;;;4.35;;
26963;SDS011;14521;48.148;-1.656;2023-05-21T09:09:27;9.93;;;4.20;;
26963;SDS011;14521;48.148;-1.656;2023-05-21T09:13:00;6.90;;;3.75;;
26963;SDS011;14521;48.148;-1.656;2023-05-21T09:16:24;13.45;;;4.53;;
26963;SDS011;14521;48.148;-1.656;2023-05-21T09:23:51;12.52;;;4.28;;
26963;SDS011;14521;48.148;-1.656;2023-05-21T09:27:17;13.07;;;4.10;;
26963;SDS011;14521;48.148;-1.656;2023-05-21T09:30:43;10.02;;;4.30;;
26963;SDS011;14521;48.148;-1.656;2023-05-21T09:34:07;7.13;;;4.03;;
26963;SDS011;14521;48.148;-1.656;2023-05-21T09:37:29;11.57;;;4.00;;
26963;SDS011;14521;48.148;-1.656;2023-05-21T09:40:56;6.63;;;3.92;;
26963;SDS011;14521;48.148;-1.656;2023-05-21T09:44:19;5.85;;;3.83;;
26963;SDS011;14521;48.148;-1.656;2023-05-21T09:47:42;11.38;;;2.70;;
26963;SDS011;14521;48.148;-1.656;2023-05-21T09:54:34;9.82;;;3.85;;
26963;SDS011;14521;48.148;-1.656;2023-05-21T09:57:57;5.30;;;2.83;;
26963;SDS011;14521;48.148;-1.656;2023-05-21T10:01:22;8.00;;;2.92;;
26963;SDS011;14521;48.148;-1.656;2023-05-21T10:04:46;9.45;;;3.50;;
26963;SDS011;14521;48.148;-1.656;2023-05-21T10:11:33;6.40;;;2.95;;
26963;SDS011;14521;48.148;-1.656;2023-05-21T10:15:02;7.25;;;3.38;;
26963;SDS011;14521;48.148;-1.656;2023-05-21T10:18:25;6.53;;;2.70;;
26963;SDS011;14521;48.148;-1.656;2023-05-21T10:21:49;4.70;;;3.20;;
26963;SDS011;14521;48.148;-1.656;2023-05-21T10:25:13;4.90;;;2.97;;
26963;SDS011;14521;48.148;-1.656;2023-05-21T10:28:36;4.90;;;2.90;;
26963;SDS011;14521;48.148;-1.656;2023-05-21T10:31:59;4.13;;;2.65;;
26963;SDS011;14521;48.148;-1.656;2023-05-21T10:35:22;2.60;;;2.17;;
26963;SDS011;14521;48.148;-1.656;2023-05-21T10:38:45;6.68;;;2.85;;
26963;SDS011;14521;48.148;-1.656;2023-05-21T10:42:14;5.63;;;2.13;;
26963;SDS011;14521;48.148;-1.656;2023-05-21T11:00:37;3.50;;;2.42;;
26963;SDS011;14521;48.148;-1.656;2023-05-21T11:04:00;2.80;;;2.25;;
26963;SDS011;14521;48.148;-1.656;2023-05-21T11:07:48;3.65;;;2.05;;
26963;SDS011;14521;48.148;-1.656;2023-05-21T11:11:53;4.38;;;2.38;;
26963;SDS011;14521;48.148;-1.656;2023-05-21T11:15:11;3.03;;;1.98;;
26963;SDS011;14521;48.148;-1.656;2023-05-21T11:21:59;4.15;;;2.70;;
26963;SDS011;14521;48.148;-1.656;2023-05-21T11:25:21;3.33;;;2.28;;
26963;SDS011;14521;48.148;-1.656;2023-05-21T11:28:43;2.55;;;2.30;;
26963;SDS011;14521;48.148;-1.656;2023-05-21T11:32:07;2.72;;;2.40;;
26963;SDS011;14521;48.148;-1.656;2023-05-21T11:35:30;3.40;;;2.05;;
26963;SDS011;14521;48.148;-1.656;2023-05-21T11:39:09;2.55;;;2.22;;
26963;SDS011;14521;48.148;-1.656;2023-05-21T11:42:33;10.63;;;2.38;;
26963;SDS011;14521;48.148;-1.656;2023-05-21T11:45:59;3.20;;;2.13;;
26963;SDS011;14521;48.148;-1.656;2023-05-21T11:49:23;4.07;;;2.10;;
26963;SDS011;14521;48.148;-1.656;2023-05-21T11:52:45;3.53;;;2.78;;
26963;SDS011;14521;48.148;-1.656;2023-05-21T11:56:07;7.28;;;2.75;;
26963;SDS011;14521;48.148;-1.656;2023-05-21T11:59:30;2.85;;;2.45;;
26963;SDS011;14521;48.148;-1.656;2023-05-21T12:02:54;8.30;;;3.00;;
26963;SDS011;14521;48.148;-1.656;2023-05-21T12:06:18;4.75;;;2.95;;
26963;SDS011;14521;48.148;-1.656;2023-05-21T12:09:48;6.97;;;2.67;;
26963;SDS011;14521;48.148;-1.656;2023-05-21T12:13:13;5.22;;;2.55;;
26963;SDS011;14521;48.148;-1.656;2023-05-21T12:16:35;7.32;;;3.15;;
26963;SDS011;14521;48.148;-1.656;2023-05-21T12:19:59;8.07;;;2.58;;
26963;SDS011;14521;48.148;-1.656;2023-05-21T12:23:22;8.93;;;2.58;;
26963;SDS011;14521;48.148;-1.656;2023-05-21T12:26:45;4.28;;;2.80;;
26963;SDS011;14521;48.148;-1.656;2023-05-21T12:30:08;6.13;;;2.65;;
26963;SDS011;14521;48.148;-1.656;2023-05-21T12:33:34;3.63;;;3.13;;
26963;SDS011;14521;48.148;-1.656;2023-05-21T12:36:56;4.07;;;2.67;;
26963;SDS011;14521;48.148;-1.656;2023-05-21T12:40:19;3.80;;;2.85;;
26963;SDS011;14521;48.148;-1.656;2023-05-21T12:43:41;4.68;;;2.60;;
26963;SDS011;14521;48.148;-1.656;2023-05-21T12:47:04;5.68;;;2.90;;
26963;SDS011;14521;48.148;-1.656;2023-05-21T12:50:27;4.15;;;2.92;;
26963;SDS011;14521;48.148;-1.656;2023-05-21T12:53:50;5.03;;;2.63;;
26963;SDS011;14521;48.148;-1.656;2023-05-21T12:57:13;4.93;;;2.70;;
26963;SDS011;14521;48.148;-1.656;2023-05-21T13:00:36;5.17;;;2.63;;
26963;SDS011;14521;48.148;-1.656;2023-05-21T13:03:59;9.05;;;3.20;;
26963;SDS011;14521;48.148;-1.656;2023-05-21T13:07:22;3.15;;;2.65;;
26963;SDS011;14521;48.148;-1.656;2023-05-21T13:10:45;8.00;;;2.85;;
26963;SDS011;14521;48.148;-1.656;2023-05-21T13:14:07;3.15;;;2.60;;
26963;SDS011;14521;48.148;-1.656;2023-05-21T13:17:30;5.05;;;2.50;;
26963;SDS011;14521;48.148;-1.656;2023-05-21T13:20:52;2.78;;;2.33;;
26963;SDS011;14521;48.148;-1.656;2023-05-21T13:24:15;3.47;;;2.45;;
26963;SDS011;14521;48.148;-1.656;2023-05-21T13:27:38;4.30;;;2.85;;
26963;SDS011;14521;48.148;-1.656;2023-05-21T13:31:00;4.28;;;2.65;;
26963;SDS011;14521;48.148;-1.656;2023-05-21T13:34:22;6.57;;;2.92;;
26963;SDS011;14521;48.148;-1.656;2023-05-21T13:37:46;5.18;;;2.90;;
26963;SDS011;14521;48.148;-1.656;2023-05-21T13:41:08;3.47;;;2.50;;
26963;SDS011;14521;48.148;-1.656;2023-05-21T13:44:31;7.78;;;2.90;;
26963;SDS011;14521;48.148;-1.656;2023-05-21T13:47:56;3.55;;;2.55;;
26963;SDS011;14521;48.148;-1.656;2023-05-21T13:51:19;5.95;;;2.88;;
26963;SDS011;14521;48.148;-1.656;2023-05-21T13:54:59;2.75;;;2.53;;
26963;SDS011;14521;48.148;-1.656;2023-05-21T13:58:21;5.82;;;3.00;;
26963;SDS011;14521;48.148;-1.656;2023-05-21T14:01:44;3.33;;;2.50;;
26963;SDS011;14521;48.148;-1.656;2023-05-21T14:05:06;2.70;;;2.38;;
26963;SDS011;14521;48.148;-1.656;2023-05-21T14:08:29;5.57;;;2.63;;
26963;SDS011;14521;48.148;-1.656;2023-05-21T14:11:52;7.15;;;2.40;;
26963;SDS011;14521;48.148;-1.656;2023-05-21T14:15:15;3.83;;;2.72;;
26963;SDS011;14521;48.148;-1.656;2023-05-21T14:18:38;4.47;;;2.63;;
26963;SDS011;14521;48.148;-1.656;2023-05-21T14:22:00;7.95;;;2.60;;
26963;SDS011;14521;48.148;-1.656;2023-05-21T14:25:22;11.13;;;2.80;;
26963;SDS011;14521;48.148;-1.656;2023-05-21T14:28:45;8.05;;;2.70;;
26963;SDS011;14521;48.148;-1.656;2023-05-21T14:32:07;10.57;;;2.95;;
26963;SDS011;14521;48.148;-1.656;2023-05-21T14:35:29;8.43;;;3.67;;
26963;SDS011;14521;48.148;-1.656;2023-05-21T14:38:52;10.60;;;3.42;;
26963;SDS011;14521;48.148;-1.656;2023-05-21T14:42:14;12.77;;;4.20;;
26963;SDS011;14521;48.148;-1.656;2023-05-21T14:45:36;11.05;;;3.97;;
26963;SDS011;14521;48.148;-1.656;2023-05-21T14:48:59;11.65;;;4.30;;
26963;SDS011;14521;48.148;-1.656;2023-05-21T14:52:21;10.55;;;4.10;;
26963;SDS011;14521;48.148;-1.656;2023-05-21T14:55:44;11.80;;;4.22;;
26963;SDS011;14521;48.148;-1.656;2023-05-21T14:59:07;5.90;;;3.60;;
26963;SDS011;14521;48.148;-1.656;2023-05-21T15:02:31;10.43;;;3.50;;
26963;SDS011;14521;48.148;-1.656;2023-05-21T15:05:54;9.40;;;4.00;;
26963;SDS011;14521;48.148;-1.656;2023-05-21T15:09:16;10.82;;;3.33;;
26963;SDS011;14521;48.148;-1.656;2023-05-21T15:12:39;4.60;;;2.80;;
26963;SDS011;14521;48.148;-1.656;2023-05-21T15:16:02;7.35;;;3.10;;
26963;SDS011;14521;48.148;-1.656;2023-05-21T15:19:24;5.22;;;3.08;;
26963;SDS011;14521;48.148;-1.656;2023-05-21T15:22:47;14.32;;;3.80;;
26963;SDS011;14521;48.148;-1.656;2023-05-21T15:26:09;7.15;;;3.35;;
26963;SDS011;14521;48.148;-1.656;2023-05-21T15:29:32;9.02;;;3.22;;
26963;SDS011;14521;48.148;-1.656;2023-05-21T15:32:54;6.35;;;2.85;;
26963;SDS011;14521;48.148;-1.656;2023-05-21T15:36:16;4.80;;;2.72;;
26963;SDS011;14521;48.148;-1.656;2023-05-21T15:39:39;9.32;;;3.05;;
26963;SDS011;14521;48.148;-1.656;2023-05-21T15:43:05;4.88;;;3.42;;
26963;SDS011;14521;48.148;-1.656;2023-05-21T15:46:27;6.47;;;3.10;;
26963;SDS011;14521;48.148;-1.656;2023-05-21T15:49:49;9.70;;;3.38;;
26963;SDS011;14521;48.148;-1.656;2023-05-21T15:53:12;22.00;;;3.92;;
26963;SDS011;14521;48.148;-1.656;2023-05-21T15:56:34;8.98;;;3.40;;
26963;SDS011;14521;48.148;-1.656;2023-05-21T15:59:57;9.93;;;3.05;;
26963;SDS011;14521;48.148;-1.656;2023-05-21T16:03:19;8.80;;;3.15;;
26963;SDS011;14521;48.148;-1.656;2023-05-21T16:06:42;6.75;;;3.08;;
26963;SDS011;14521;48.148;-1.656;2023-05-21T16:10:04;8.82;;;3.30;;
26963;SDS011;14521;48.148;-1.656;2023-05-21T16:13:30;5.38;;;3.50;;
26963;SDS011;14521;48.148;-1.656;2023-05-21T16:16:53;10.48;;;3.10;;
26963;SDS011;14521;48.148;-1.656;2023-05-21T16:20:16;7.50;;;2.92;;
26963;SDS011;14521;48.148;-1.656;2023-05-21T16:23:39;5.82;;;2.50;;
26963;SDS011;14521;48.148;-1.656;2023-05-21T16:27:02;5.25;;;2.40;;
26963;SDS011;14521;48.148;-1.656;2023-05-21T16:30:24;9.93;;;2.33;;
26963;SDS011;14521;48.148;-1.656;2023-05-21T16:33:46;4.82;;;2.45;;
26963;SDS011;14521;48.148;-1.656;2023-05-21T16:37:09;4.30;;;2.03;;
26963;SDS011;14521;48.148;-1.656;2023-05-21T16:40:32;9.57;;;2.92;;
26963;SDS011;14521;48.148;-1.656;2023-05-21T16:43:54;5.47;;;2.45;;
26963;SDS011;14521;48.148;-1.656;2023-05-21T16:47:16;6.13;;;2.95;;
26963;SDS011;14521;48.148;-1.656;2023-05-21T16:50:39;13.73;;;2.20;;
26963;SDS011;14521;48.148;-1.656;2023-05-21T16:54:01;3.50;;;2.17;;
26963;SDS011;14521;48.148;-1.656;2023-05-21T16:57:25;8.00;;;2.45;;
26963;SDS011;14521;48.148;-1.656;2023-05-21T17:00:47;3.78;;;2.33;;
26963;SDS011;14521;48.148;-1.656;2023-05-21T17:04:10;4.25;;;2.30;;
26963;SDS011;14521;48.148;-1.656;2023-05-21T17:07:32;5.30;;;3.90;;
26963;SDS011;14521;48.148;-1.656;2023-05-21T17:10:55;15.18;;;7.07;;
26963;SDS011;14521;48.148;-1.656;2023-05-21T17:14:17;13.02;;;6.40;;
26963;SDS011;14521;48.148;-1.656;2023-05-21T17:17:54;11.32;;;6.50;;
26963;SDS011;14521;48.148;-1.656;2023-05-21T17:21:17;13.63;;;6.20;;
26963;SDS011;14521;48.148;-1.656;2023-05-21T17:24:40;6.68;;;4.75;;
26963;SDS011;14521;48.148;-1.656;2023-05-21T17:28:02;11.63;;;5.05;;
26963;SDS011;14521;48.148;-1.656;2023-05-21T17:31:25;5.97;;;3.92;;
26963;SDS011;14521;48.148;-1.656;2023-05-21T17:34:47;5.70;;;3.45;;
26963;SDS011;14521;48.148;-1.656;2023-05-21T17:38:10;6.13;;;3.30;;
26963;SDS011;14521;48.148;-1.656;2023-05-21T17:41:32;8.65;;;3.00;;
26963;SDS011;14521;48.148;-1.656;2023-05-21T17:44:54;7.68;;;2.90;;
26963;SDS011;14521;48.148;-1.656;2023-05-21T17:48:16;8.65;;;3.08;;
26963;SDS011;14521;48.148;-1.656;2023-05-21T17:51:39;5.30;;;2.30;;
26963;SDS011;14521;48.148;-1.656;2023-05-21T17:55:02;5.78;;;2.63;;
26963;SDS011;14521;48.148;-1.656;2023-05-21T17:58:24;12.90;;;2.65;;
26963;SDS011;14521;48.148;-1.656;2023-05-21T18:01:46;8.20;;;2.28;;
26963;SDS011;14521;48.148;-1.656;2023-05-21T18:05:09;6.95;;;1.83;;
26963;SDS011;14521;48.148;-1.656;2023-05-21T18:08:31;11.75;;;1.95;;
26963;SDS011;14521;48.148;-1.656;2023-05-21T18:11:53;2.63;;;1.95;;
26963;SDS011;14521;48.148;-1.656;2023-05-21T18:15:16;6.40;;;1.50;;
26963;SDS011;14521;48.148;-1.656;2023-05-21T18:18:38;3.50;;;1.58;;
26963;SDS011;14521;48.148;-1.656;2023-05-21T18:22:01;7.45;;;2.03;;
26963;SDS011;14521;48.148;-1.656;2023-05-21T18:25:23;3.22;;;1.83;;
26963;SDS011;14521;48.148;-1.656;2023-05-21T18:28:45;8.98;;;2.15;;
26963;SDS011;14521;48.148;-1.656;2023-05-21T18:32:09;6.55;;;2.00;;
26963;SDS011;14521;48.148;-1.656;2023-05-21T18:35:32;5.28;;;2.47;;
26963;SDS011;14521;48.148;-1.656;2023-05-21T18:38:55;4.03;;;2.00;;
26963;SDS011;14521;48.148;-1.656;2023-05-21T18:42:18;6.97;;;2.33;;
26963;SDS011;14521;48.148;-1.656;2023-05-21T18:45:40;4.22;;;2.10;;
26963;SDS011;14521;48.148;-1.656;2023-05-21T18:49:03;7.72;;;2.47;;
26963;SDS011;14521;48.148;-1.656;2023-05-21T18:52:26;4.50;;;2.20;;
26963;SDS011;14521;48.148;-1.656;2023-05-21T18:55:48;8.57;;;2.40;;
26963;SDS011;14521;48.148;-1.656;2023-05-21T18:59:11;3.72;;;2.00;;
26963;SDS011;14521;48.148;-1.656;2023-05-21T19:02:33;7.43;;;1.75;;
26963;SDS011;14521;48.148;-1.656;2023-05-21T19:05:57;4.95;;;1.90;;
26963;SDS011;14521;48.148;-1.656;2023-05-21T19:09:19;3.80;;;2.17;;
26963;SDS011;14521;48.148;-1.656;2023-05-21T19:12:41;2.33;;;1.50;;
26963;SDS011;14521;48.148;-1.656;2023-05-21T19:16:04;3.03;;;1.70;;
26963;SDS011;14521;48.148;-1.656;2023-05-21T19:19:31;4.57;;;1.88;;
26963;SDS011;14521;48.148;-1.656;2023-05-21T19:22:54;5.78;;;1.80;;
26963;SDS011;14521;48.148;-1.656;2023-05-21T19:26:16;6.60;;;1.90;;
26963;SDS011;14521;48.148;-1.656;2023-05-21T19:29:39;3.22;;;1.50;;
26963;SDS011;14521;48.148;-1.656;2023-05-21T19:33:01;6.05;;;1.80;;
26963;SDS011;14521;48.148;-1.656;2023-05-21T19:36:24;3.03;;;1.27;;
26963;SDS011;14521;48.148;-1.656;2023-05-21T19:39:46;6.88;;;2.20;;
26963;SDS011;14521;48.148;-1.656;2023-05-21T19:43:11;3.95;;;2.00;;
26963;SDS011;14521;48.148;-1.656;2023-05-21T19:46:33;5.32;;;1.60;;
26963;SDS011;14521;48.148;-1.656;2023-05-21T19:49:56;4.38;;;1.90;;
26963;SDS011;14521;48.148;-1.656;2023-05-21T19:53:18;4.90;;;1.52;;
26963;SDS011;14521;48.148;-1.656;2023-05-21T19:56:40;3.30;;;2.03;;
26963;SDS011;14521;48.148;-1.656;2023-05-21T20:00:03;3.47;;;1.52;;
26963;SDS011;14521;48.148;-1.656;2023-05-21T20:03:32;6.47;;;1.63;;
26963;SDS011;14521;48.148;-1.656;2023-05-21T20:06:56;2.83;;;1.52;;
26963;SDS011;14521;48.148;-1.656;2023-05-21T20:10:19;11.00;;;1.58;;
26963;SDS011;14521;48.148;-1.656;2023-05-21T20:13:41;4.85;;;1.50;;
26963;SDS011;14521;48.148;-1.656;2023-05-21T20:17:09;3.63;;;1.88;;
26963;SDS011;14521;48.148;-1.656;2023-05-21T20:20:32;1.88;;;1.38;;
26963;SDS011;14521;48.148;-1.656;2023-05-21T20:23:58;2.40;;;1.52;;
26963;SDS011;14521;48.148;-1.656;2023-05-21T20:27:20;2.53;;;1.10;;
26963;SDS011;14521;48.148;-1.656;2023-05-21T20:30:53;2.50;;;1.60;;
26963;SDS011;14521;48.148;-1.656;2023-05-21T20:34:18;2.45;;;1.92;;
26963;SDS011;14521;48.148;-1.656;2023-05-21T20:37:41;5.20;;;1.58;;